Skip Navigation LinksHome page > Weather > Current weather Skip Navigation Links

Current Weather

Jakutsk, Russia

For information only: do not use for flight planning or navigation.
Latest weather
Observation time Thursday, May 28, 2015 10:00 AM JST
Local time Thursday, May 28, 2015 10:45 AM JST
Flight conditions Visual Meteorological Conditions
Winds
Wind direction Southwest (220°)
Wind speed 7 mph
Visibility 6.2 mi.
Sky condition
Ceiling unlimited
Cloud layer scattered clouds with cumulonimbus 4,000 ft.
Temperature 43°F
Dewpoint 36°F
Altimeter 29.56 in.Hg
Precipitation
QF 10:22 PM
Derived measurements
Relative humidity 75%
Wind chill 39°F
Density altitude -223 ft.
Remarks
No significant changes expected in the next two hours.
METAR UEEE 280100Z 22003MPS 9999 SCT040CB 06/02 Q1001 R23L/19//55 NOSIG RMK QFE742

Settings

Location code

InnerDrive.Weather 4.0.5567.0 Release CLR 4.0.30319.34014
Copyright ©2015 Inner Drive Technology. All rights reserved. Portions Copyright ©1986-2015 David Braverman.

Find weather

Site navigation


Skip Navigation Links

Place info

Page info

PayPal - The safer, easier way to pay online!

Return home.

Copyright ©2015 Inner Drive Technology. Purveyors of fine, hand-crafted computer software. Page printed 2015-05-28T01:45:06 UTC.